Massey, Canada
Current Conditions -  °F | °C
As of 10:00 AM on Tuesday 21 Oct 2014 (Local Time) from CYZE Reporting Station
Scattered Clouds Scattered Clouds  
Wind Chill: -1°   Ceiling: Unl
Heat Index:   Visibility: 9mi
Dew Point:   Wind: 20mph
Humidity: 75%   Direction: 30°NNE
Pressure: 30.11"   Gusts: 29mph
Location:  46.21°N, 82.08°W
Report Text: CYZE 211400Z AUTO 03017G25KT 9SM SCT020 SCT025 04/00 A3011 RMK SLP204
Loading
Personal Weather Stations






























Interactive Weather Map
Tropical Storm Tracking
New forecast layout! Learn more

10-Day Weather Forecast

Advertisements
Track Severe Weather on mobile